sensor_id;sensor_type;location;lat;lon;timestamp;temperature;humidity
52471;DHT22;38382;53.160;7.026;2023-06-22T00:00:53;18.00;99.90
52471;DHT22;38382;53.160;7.026;2023-06-22T00:03:20;18.00;99.90
52471;DHT22;38382;53.160;7.026;2023-06-22T00:05:49;17.90;99.90
52471;DHT22;38382;53.160;7.026;2023-06-22T00:08:16;17.90;99.90
52471;DHT22;38382;53.160;7.026;2023-06-22T00:10:43;17.90;99.90
52471;DHT22;38382;53.160;7.026;2023-06-22T00:13:09;17.90;99.90
52471;DHT22;38382;53.160;7.026;2023-06-22T00:15:36;17.90;99.90
52471;DHT22;38382;53.160;7.026;2023-06-22T00:18:03;17.80;99.90
52471;DHT22;38382;53.160;7.026;2023-06-22T00:20:29;17.80;99.90
52471;DHT22;38382;53.160;7.026;2023-06-22T00:22:56;17.80;99.90
52471;DHT22;38382;53.160;7.026;2023-06-22T00:25:23;17.70;99.90
52471;DHT22;38382;53.160;7.026;2023-06-22T00:27:49;17.70;99.90
52471;DHT22;38382;53.160;7.026;2023-06-22T00:30:19;17.70;99.90
52471;DHT22;38382;53.160;7.026;2023-06-22T00:32:45;17.70;99.90
52471;DHT22;38382;53.160;7.026;2023-06-22T00:35:12;17.60;99.90
52471;DHT22;38382;53.160;7.026;2023-06-22T00:37:38;17.60;99.90
52471;DHT22;38382;53.160;7.026;2023-06-22T00:40:08;17.60;99.90
52471;DHT22;38382;53.160;7.026;2023-06-22T00:42:36;17.50;99.90
52471;DHT22;38382;53.160;7.026;2023-06-22T00:45:02;17.50;99.90
52471;DHT22;38382;53.160;7.026;2023-06-22T00:47:28;17.40;99.90
52471;DHT22;38382;53.160;7.026;2023-06-22T00:49:57;17.40;99.90
52471;DHT22;38382;53.160;7.026;2023-06-22T00:52:23;17.40;99.90
52471;DHT22;38382;53.160;7.026;2023-06-22T00:54:55;17.40;99.90
52471;DHT22;38382;53.160;7.026;2023-06-22T00:57:27;17.40;99.90
52471;DHT22;38382;53.160;7.026;2023-06-22T00:59:54;17.30;99.90
52471;DHT22;38382;53.160;7.026;2023-06-22T01:02:19;17.30;99.90
52471;DHT22;38382;53.160;7.026;2023-06-22T01:04:45;17.30;99.90
52471;DHT22;38382;53.160;7.026;2023-06-22T01:12:15;17.20;99.90
52471;DHT22;38382;53.160;7.026;2023-06-22T01:14:55;17.20;99.90
52471;DHT22;38382;53.160;7.026;2023-06-22T01:17:24;17.20;99.90
52471;DHT22;38382;53.160;7.026;2023-06-22T01:19:54;17.20;99.90
52471;DHT22;38382;53.160;7.026;2023-06-22T01:22:24;17.20;99.90
52471;DHT22;38382;53.160;7.026;2023-06-22T01:25:21;17.10;99.90
52471;DHT22;38382;53.160;7.026;2023-06-22T01:27:59;17.10;99.90
52471;DHT22;38382;53.160;7.026;2023-06-22T01:30:30;17.10;99.90
52471;DHT22;38382;53.160;7.026;2023-06-22T01:32:57;17.00;99.90
52471;DHT22;38382;53.160;7.026;2023-06-22T01:35:24;17.00;99.90
52471;DHT22;38382;53.160;7.026;2023-06-22T01:37:50;17.00;99.90
52471;DHT22;38382;53.160;7.026;2023-06-22T01:40:16;17.00;99.90
52471;DHT22;38382;53.160;7.026;2023-06-22T01:42:47;16.90;99.90
52471;DHT22;38382;53.160;7.026;2023-06-22T01:45:14;16.90;99.90
52471;DHT22;38382;53.160;7.026;2023-06-22T01:47:41;16.90;99.90
52471;DHT22;38382;53.160;7.026;2023-06-22T01:50:07;16.90;99.90
52471;DHT22;38382;53.160;7.026;2023-06-22T01:52:34;16.90;99.90
52471;DHT22;38382;53.160;7.026;2023-06-22T01:55:00;16.90;99.90
52471;DHT22;38382;53.160;7.026;2023-06-22T01:57:26;16.90;99.90
52471;DHT22;38382;53.160;7.026;2023-06-22T02:02:24;16.90;99.90
52471;DHT22;38382;53.160;7.026;2023-06-22T02:04:58;16.90;99.90
52471;DHT22;38382;53.160;7.026;2023-06-22T02:07:29;16.80;99.90
52471;DHT22;38382;53.160;7.026;2023-06-22T02:09:59;16.80;99.90
52471;DHT22;38382;53.160;7.026;2023-06-22T02:12:26;16.80;99.90
52471;DHT22;38382;53.160;7.026;2023-06-22T02:14:53;16.80;99.90
52471;DHT22;38382;53.160;7.026;2023-06-22T02:17:19;16.80;99.90
52471;DHT22;38382;53.160;7.026;2023-06-22T02:19:45;16.80;99.90
52471;DHT22;38382;53.160;7.026;2023-06-22T02:22:11;16.70;99.90
52471;DHT22;38382;53.160;7.026;2023-06-22T02:24:39;16.70;99.90
52471;DHT22;38382;53.160;7.026;2023-06-22T02:27:05;16.70;99.90
52471;DHT22;38382;53.160;7.026;2023-06-22T02:29:32;16.70;99.90
52471;DHT22;38382;53.160;7.026;2023-06-22T02:31:58;16.70;99.90
52471;DHT22;38382;53.160;7.026;2023-06-22T02:34:24;16.60;99.90
52471;DHT22;38382;53.160;7.026;2023-06-22T02:36:50;16.60;99.90
52471;DHT22;38382;53.160;7.026;2023-06-22T02:39:24;16.60;99.90
52471;DHT22;38382;53.160;7.026;2023-06-22T02:41:53;16.60;99.90
52471;DHT22;38382;53.160;7.026;2023-06-22T02:44:20;16.60;99.90
52471;DHT22;38382;53.160;7.026;2023-06-22T02:46:47;16.60;99.90
52471;DHT22;38382;53.160;7.026;2023-06-22T02:49:16;16.60;99.90
52471;DHT22;38382;53.160;7.026;2023-06-22T02:51:48;16.50;99.90
52471;DHT22;38382;53.160;7.026;2023-06-22T02:54:14;16.50;99.90
52471;DHT22;38382;53.160;7.026;2023-06-22T02:56:39;16.50;99.90
52471;DHT22;38382;53.160;7.026;2023-06-22T02:59:06;16.50;99.90
52471;DHT22;38382;53.160;7.026;2023-06-22T03:01:32;16.50;99.90
52471;DHT22;38382;53.160;7.026;2023-06-22T03:04:03;16.40;99.90
52471;DHT22;38382;53.160;7.026;2023-06-22T03:06:30;16.40;99.90
52471;DHT22;38382;53.160;7.026;2023-06-22T03:08:59;16.40;99.90
52471;DHT22;38382;53.160;7.026;2023-06-22T03:11:26;16.40;99.90
52471;DHT22;38382;53.160;7.026;2023-06-22T03:13:52;16.40;99.90
52471;DHT22;38382;53.160;7.026;2023-06-22T03:16:18;16.40;99.90
52471;DHT22;38382;53.160;7.026;2023-06-22T03:18:44;16.40;99.90
52471;DHT22;38382;53.160;7.026;2023-06-22T03:21:10;16.40;99.90
52471;DHT22;38382;53.160;7.026;2023-06-22T03:23:41;16.40;99.90
52471;DHT22;38382;53.160;7.026;2023-06-22T03:26:06;16.30;99.90
52471;DHT22;38382;53.160;7.026;2023-06-22T03:28:32;16.30;99.90
52471;DHT22;38382;53.160;7.026;2023-06-22T03:30:58;16.30;99.90
52471;DHT22;38382;53.160;7.026;2023-06-22T03:33:24;16.30;99.90
52471;DHT22;38382;53.160;7.026;2023-06-22T03:35:50;16.30;99.90
52471;DHT22;38382;53.160;7.026;2023-06-22T03:38:16;16.30;99.90
52471;DHT22;38382;53.160;7.026;2023-06-22T03:40:42;16.40;99.90
52471;DHT22;38382;53.160;7.026;2023-06-22T03:43:08;16.40;99.90
52471;DHT22;38382;53.160;7.026;2023-06-22T03:45:36;16.30;99.90
52471;DHT22;38382;53.160;7.026;2023-06-22T03:48:05;16.30;99.90
52471;DHT22;38382;53.160;7.026;2023-06-22T03:50:31;16.40;99.90
52471;DHT22;38382;53.160;7.026;2023-06-22T03:52:57;16.40;99.90
52471;DHT22;38382;53.160;7.026;2023-06-22T03:55:23;16.40;99.90
52471;DHT22;38382;53.160;7.026;2023-06-22T03:57:48;16.40;99.90
52471;DHT22;38382;53.160;7.026;2023-06-22T04:00:15;16.40;99.90
52471;DHT22;38382;53.160;7.026;2023-06-22T04:02:43;16.50;99.90
52471;DHT22;38382;53.160;7.026;2023-06-22T04:05:09;16.50;99.90
52471;DHT22;38382;53.160;7.026;2023-06-22T04:07:35;16.50;99.90
52471;DHT22;38382;53.160;7.026;2023-06-22T04:10:04;16.60;99.90
52471;DHT22;38382;53.160;7.026;2023-06-22T04:12:29;16.60;99.90
52471;DHT22;38382;53.160;7.026;2023-06-22T04:14:55;16.70;99.90
52471;DHT22;38382;53.160;7.026;2023-06-22T04:17:21;16.70;99.90
52471;DHT22;38382;53.160;7.026;2023-06-22T04:19:47;16.80;99.90
52471;DHT22;38382;53.160;7.026;2023-06-22T04:22:12;16.80;99.90
52471;DHT22;38382;53.160;7.026;2023-06-22T04:24:38;16.80;99.90
52471;DHT22;38382;53.160;7.026;2023-06-22T04:27:04;16.80;99.90
52471;DHT22;38382;53.160;7.026;2023-06-22T04:29:30;16.90;99.90
52471;DHT22;38382;53.160;7.026;2023-06-22T04:31:56;16.90;99.90
52471;DHT22;38382;53.160;7.026;2023-06-22T04:34:25;16.90;99.90
52471;DHT22;38382;53.160;7.026;2023-06-22T04:36:52;17.00;99.90
52471;DHT22;38382;53.160;7.026;2023-06-22T04:39:18;17.00;99.90
52471;DHT22;38382;53.160;7.026;2023-06-22T04:41:44;17.00;99.90
52471;DHT22;38382;53.160;7.026;2023-06-22T04:44:15;17.00;99.90
52471;DHT22;38382;53.160;7.026;2023-06-22T04:46:54;17.00;99.90
52471;DHT22;38382;53.160;7.026;2023-06-22T04:49:26;17.10;99.90
52471;DHT22;38382;53.160;7.026;2023-06-22T04:52:02;17.10;99.90
52471;DHT22;38382;53.160;7.026;2023-06-22T04:54:28;17.10;99.90
52471;DHT22;38382;53.160;7.026;2023-06-22T04:56:54;17.10;99.90
52471;DHT22;38382;53.160;7.026;2023-06-22T04:59:30;17.20;99.90
52471;DHT22;38382;53.160;7.026;2023-06-22T05:02:00;17.10;99.90
52471;DHT22;38382;53.160;7.026;2023-06-22T05:04:27;17.20;99.90
52471;DHT22;38382;53.160;7.026;2023-06-22T05:42:23;17.60;99.90
52471;DHT22;38382;53.160;7.026;2023-06-22T05:52:35;17.80;99.90
52471;DHT22;38382;53.160;7.026;2023-06-22T06:02:34;17.90;99.90
52471;DHT22;38382;53.160;7.026;2023-06-22T06:08:45;18.00;99.90
52471;DHT22;38382;53.160;7.026;2023-06-22T06:11:11;18.10;99.90
52471;DHT22;38382;53.160;7.026;2023-06-22T06:13:37;18.20;99.90
52471;DHT22;38382;53.160;7.026;2023-06-22T06:16:03;18.20;99.90
52471;DHT22;38382;53.160;7.026;2023-06-22T06:18:28;18.30;99.90
52471;DHT22;38382;53.160;7.026;2023-06-22T06:20:54;18.40;99.90
52471;DHT22;38382;53.160;7.026;2023-06-22T06:23:23;18.50;99.90
52471;DHT22;38382;53.160;7.026;2023-06-22T06:25:48;18.60;99.90
52471;DHT22;38382;53.160;7.026;2023-06-22T06:28:14;18.60;99.90
52471;DHT22;38382;53.160;7.026;2023-06-22T06:46:24;19.00;99.90
52471;DHT22;38382;53.160;7.026;2023-06-22T06:48:52;19.00;99.90
52471;DHT22;38382;53.160;7.026;2023-06-22T06:51:33;19.20;99.90
52471;DHT22;38382;53.160;7.026;2023-06-22T06:58:06;19.30;99.90
52471;DHT22;38382;53.160;7.026;2023-06-22T07:04:43;19.50;99.90
52471;DHT22;38382;53.160;7.026;2023-06-22T07:31:42;21.10;99.90
52471;DHT22;38382;53.160;7.026;2023-06-22T07:43:06;21.60;99.90
52471;DHT22;38382;53.160;7.026;2023-06-22T07:45:32;21.80;99.90
52471;DHT22;38382;53.160;7.026;2023-06-22T07:48:00;21.90;99.90
52471;DHT22;38382;53.160;7.026;2023-06-22T07:50:26;22.10;99.90
52471;DHT22;38382;53.160;7.026;2023-06-22T07:52:52;22.20;99.90
52471;DHT22;38382;53.160;7.026;2023-06-22T07:55:18;22.30;99.90
52471;DHT22;38382;53.160;7.026;2023-06-22T07:57:44;22.50;99.90
52471;DHT22;38382;53.160;7.026;2023-06-22T08:00:10;22.50;99.90
52471;DHT22;38382;53.160;7.026;2023-06-22T08:02:48;22.60;99.90
52471;DHT22;38382;53.160;7.026;2023-06-22T08:12:55;22.90;99.90
52471;DHT22;38382;53.160;7.026;2023-06-22T08:15:21;23.10;99.90
52471;DHT22;38382;53.160;7.026;2023-06-22T08:17:47;23.20;99.90
52471;DHT22;38382;53.160;7.026;2023-06-22T08:20:13;23.40;99.90
52471;DHT22;38382;53.160;7.026;2023-06-22T08:22:40;23.50;99.90
52471;DHT22;38382;53.160;7.026;2023-06-22T08:25:07;23.70;99.90
52471;DHT22;38382;53.160;7.026;2023-06-22T08:27:33;23.80;99.90
52471;DHT22;38382;53.160;7.026;2023-06-22T08:30:02;24.00;99.90
52471;DHT22;38382;53.160;7.026;2023-06-22T08:32:28;24.10;99.90
52471;DHT22;38382;53.160;7.026;2023-06-22T08:34:55;24.30;99.90
52471;DHT22;38382;53.160;7.026;2023-06-22T08:37:21;24.40;99.90
52471;DHT22;38382;53.160;7.026;2023-06-22T08:55:56;25.60;99.90
52471;DHT22;38382;53.160;7.026;2023-06-22T09:16:42;27.00;99.90
52471;DHT22;38382;53.160;7.026;2023-06-22T09:19:08;27.10;99.90
52471;DHT22;38382;53.160;7.026;2023-06-22T09:21:33;27.20;99.90
52471;DHT22;38382;53.160;7.026;2023-06-22T09:23:59;27.30;99.90
52471;DHT22;38382;53.160;7.026;2023-06-22T09:26:25;27.30;99.90
52471;DHT22;38382;53.160;7.026;2023-06-22T09:28:51;27.40;99.90
52471;DHT22;38382;53.160;7.026;2023-06-22T09:31:17;27.60;99.90
52471;DHT22;38382;53.160;7.026;2023-06-22T09:33:42;27.60;99.90
52471;DHT22;38382;53.160;7.026;2023-06-22T09:36:08;27.80;99.90
52471;DHT22;38382;53.160;7.026;2023-06-22T09:38:38;27.90;99.90
52471;DHT22;38382;53.160;7.026;2023-06-22T09:41:04;28.00;99.90
52471;DHT22;38382;53.160;7.026;2023-06-22T09:43:31;28.10;99.90
52471;DHT22;38382;53.160;7.026;2023-06-22T09:45:57;28.30;99.90
52471;DHT22;38382;53.160;7.026;2023-06-22T09:48:23;28.40;99.90
52471;DHT22;38382;53.160;7.026;2023-06-22T09:50:49;28.50;99.90
52471;DHT22;38382;53.160;7.026;2023-06-22T09:53:14;28.60;99.90
52471;DHT22;38382;53.160;7.026;2023-06-22T09:55:40;28.70;99.90
52471;DHT22;38382;53.160;7.026;2023-06-22T09:58:06;28.90;99.90
52471;DHT22;38382;53.160;7.026;2023-06-22T10:00:31;29.00;99.90
52471;DHT22;38382;53.160;7.026;2023-06-22T10:02:57;29.10;99.90
52471;DHT22;38382;53.160;7.026;2023-06-22T10:05:23;29.10;99.90
52471;DHT22;38382;53.160;7.026;2023-06-22T10:07:50;29.40;99.90
52471;DHT22;38382;53.160;7.026;2023-06-22T10:10:16;29.40;99.90
52471;DHT22;38382;53.160;7.026;2023-06-22T10:12:47;29.40;98.40
52471;DHT22;38382;53.160;7.026;2023-06-22T10:15:13;29.40;99.40
52471;DHT22;38382;53.160;7.026;2023-06-22T10:17:39;29.60;99.90
52471;DHT22;38382;53.160;7.026;2023-06-22T10:20:06;29.70;99.10
52471;DHT22;38382;53.160;7.026;2023-06-22T10:22:40;29.80;98.60
52471;DHT22;38382;53.160;7.026;2023-06-22T10:25:06;29.90;99.00
52471;DHT22;38382;53.160;7.026;2023-06-22T10:27:32;30.10;99.00
52471;DHT22;38382;53.160;7.026;2023-06-22T10:29:58;30.10;98.80
52471;DHT22;38382;53.160;7.026;2023-06-22T10:32:23;30.20;97.30
52471;DHT22;38382;53.160;7.026;2023-06-22T10:34:49;30.30;98.10
52471;DHT22;38382;53.160;7.026;2023-06-22T10:37:15;30.50;96.80
52471;DHT22;38382;53.160;7.026;2023-06-22T10:39:40;30.70;96.90
52471;DHT22;38382;53.160;7.026;2023-06-22T10:42:25;30.90;96.60
52471;DHT22;38382;53.160;7.026;2023-06-22T10:49:06;30.80;93.20
52471;DHT22;38382;53.160;7.026;2023-06-22T10:51:37;30.70;93.90
52471;DHT22;38382;53.160;7.026;2023-06-22T10:54:03;30.80;92.90
52471;DHT22;38382;53.160;7.026;2023-06-22T10:56:30;30.60;94.40
52471;DHT22;38382;53.160;7.026;2023-06-22T10:59:22;30.60;94.40
52471;DHT22;38382;53.160;7.026;2023-06-22T11:02:06;30.70;95.40
52471;DHT22;38382;53.160;7.026;2023-06-22T11:18:47;31.30;93.70
52471;DHT22;38382;53.160;7.026;2023-06-22T11:21:45;31.40;92.00
52471;DHT22;38382;53.160;7.026;2023-06-22T11:24:14;31.50;92.30
52471;DHT22;38382;53.160;7.026;2023-06-22T11:27:11;31.60;94.00
52471;DHT22;38382;53.160;7.026;2023-06-22T11:45:32;30.70;93.30
52471;DHT22;38382;53.160;7.026;2023-06-22T12:48:50;30.20;94.60
52471;DHT22;38382;53.160;7.026;2023-06-22T12:51:23;30.90;94.40
52471;DHT22;38382;53.160;7.026;2023-06-22T12:53:48;30.90;94.30
52471;DHT22;38382;53.160;7.026;2023-06-22T13:15:13;29.80;93.30
52471;DHT22;38382;53.160;7.026;2023-06-22T13:17:41;29.60;95.20
52471;DHT22;38382;53.160;7.026;2023-06-22T13:20:25;29.40;93.90
52471;DHT22;38382;53.160;7.026;2023-06-22T13:23:00;29.30;95.20
52471;DHT22;38382;53.160;7.026;2023-06-22T13:25:25;29.30;94.80
52471;DHT22;38382;53.160;7.026;2023-06-22T13:28:35;29.00;95.70
52471;DHT22;38382;53.160;7.026;2023-06-22T13:31:14;28.80;96.50
52471;DHT22;38382;53.160;7.026;2023-06-22T13:33:40;28.60;97.30
52471;DHT22;38382;53.160;7.026;2023-06-22T13:36:06;28.40;98.90
52471;DHT22;38382;53.160;7.026;2023-06-22T13:38:39;28.40;99.10
52471;DHT22;38382;53.160;7.026;2023-06-22T13:41:16;28.30;99.90
52471;DHT22;38382;53.160;7.026;2023-06-22T13:47:27;28.20;99.60
52471;DHT22;38382;53.160;7.026;2023-06-22T13:49:53;28.30;99.90
52471;DHT22;38382;53.160;7.026;2023-06-22T13:52:19;28.10;99.90
52471;DHT22;38382;53.160;7.026;2023-06-22T13:54:45;28.00;99.90
52471;DHT22;38382;53.160;7.026;2023-06-22T13:57:11;28.00;99.90
52471;DHT22;38382;53.160;7.026;2023-06-22T13:59:36;27.90;99.90
52471;DHT22;38382;53.160;7.026;2023-06-22T14:02:02;27.90;99.90
52471;DHT22;38382;53.160;7.026;2023-06-22T14:04:28;27.80;99.90
52471;DHT22;38382;53.160;7.026;2023-06-22T14:06:57;27.70;99.90
52471;DHT22;38382;53.160;7.026;2023-06-22T14:09:22;27.50;99.90
52471;DHT22;38382;53.160;7.026;2023-06-22T14:15:03;27.20;99.90
52471;DHT22;38382;53.160;7.026;2023-06-22T14:35:43;26.30;99.90
52471;DHT22;38382;53.160;7.026;2023-06-22T14:42:25;26.10;99.90
52471;DHT22;38382;53.160;7.026;2023-06-22T14:45:15;26.00;99.90
52471;DHT22;38382;53.160;7.026;2023-06-22T14:47:47;25.90;99.90
52471;DHT22;38382;53.160;7.026;2023-06-22T14:50:13;25.60;99.90
52471;DHT22;38382;53.160;7.026;2023-06-22T14:52:47;25.70;99.90
52471;DHT22;38382;53.160;7.026;2023-06-22T14:55:21;25.40;99.90
52471;DHT22;38382;53.160;7.026;2023-06-22T14:58:06;25.70;99.90
52471;DHT22;38382;53.160;7.026;2023-06-22T15:00:32;25.60;99.90
52471;DHT22;38382;53.160;7.026;2023-06-22T15:02:58;25.60;99.90
52471;DHT22;38382;53.160;7.026;2023-06-22T15:05:25;25.50;99.90
52471;DHT22;38382;53.160;7.026;2023-06-22T15:07:51;25.50;99.90
52471;DHT22;38382;53.160;7.026;2023-06-22T15:10:19;25.40;99.90
52471;DHT22;38382;53.160;7.026;2023-06-22T15:12:45;25.40;99.90
52471;DHT22;38382;53.160;7.026;2023-06-22T15:15:11;25.30;99.90
52471;DHT22;38382;53.160;7.026;2023-06-22T15:17:42;25.40;99.90
52471;DHT22;38382;53.160;7.026;2023-06-22T15:20:08;25.10;99.90
52471;DHT22;38382;53.160;7.026;2023-06-22T15:22:37;25.10;99.90
52471;DHT22;38382;53.160;7.026;2023-06-22T15:25:03;25.10;99.90
52471;DHT22;38382;53.160;7.026;2023-06-22T15:27:36;25.10;99.90
52471;DHT22;38382;53.160;7.026;2023-06-22T15:30:05;25.00;99.90
52471;DHT22;38382;53.160;7.026;2023-06-22T15:32:31;25.00;99.90
52471;DHT22;38382;53.160;7.026;2023-06-22T15:39:12;24.90;99.90
52471;DHT22;38382;53.160;7.026;2023-06-22T15:41:53;24.80;99.90
52471;DHT22;38382;53.160;7.026;2023-06-22T15:44:53;24.70;99.90
52471;DHT22;38382;53.160;7.026;2023-06-22T15:58:57;24.30;99.90
52471;DHT22;38382;53.160;7.026;2023-06-22T16:01:23;24.00;99.90
52471;DHT22;38382;53.160;7.026;2023-06-22T16:03:55;23.80;99.90
52471;DHT22;38382;53.160;7.026;2023-06-22T16:06:24;23.70;99.90
52471;DHT22;38382;53.160;7.026;2023-06-22T16:08:50;23.60;99.90
52471;DHT22;38382;53.160;7.026;2023-06-22T16:11:39;23.60;99.90
52471;DHT22;38382;53.160;7.026;2023-06-22T16:18:07;23.20;99.90
52471;DHT22;38382;53.160;7.026;2023-06-22T16:20:33;23.00;99.90
52471;DHT22;38382;53.160;7.026;2023-06-22T16:22:59;22.90;99.90
52471;DHT22;38382;53.160;7.026;2023-06-22T16:25:24;22.80;99.90
52471;DHT22;38382;53.160;7.026;2023-06-22T16:27:50;22.60;99.90
52471;DHT22;38382;53.160;7.026;2023-06-22T16:30:16;22.50;99.90
52471;DHT22;38382;53.160;7.026;2023-06-22T16:33:01;22.40;99.90
52471;DHT22;38382;53.160;7.026;2023-06-22T16:35:31;22.30;99.90
52471;DHT22;38382;53.160;7.026;2023-06-22T16:38:02;22.30;99.90
52471;DHT22;38382;53.160;7.026;2023-06-22T16:40:28;22.20;99.90
52471;DHT22;38382;53.160;7.026;2023-06-22T16:42:54;22.10;99.90
52471;DHT22;38382;53.160;7.026;2023-06-22T16:45:20;22.00;99.90
52471;DHT22;38382;53.160;7.026;2023-06-22T16:47:50;22.10;99.90
52471;DHT22;38382;53.160;7.026;2023-06-22T16:50:19;21.40;99.90
52471;DHT22;38382;53.160;7.026;2023-06-22T16:52:48;21.80;99.90
52471;DHT22;38382;53.160;7.026;2023-06-22T16:55:20;21.70;99.90
52471;DHT22;38382;53.160;7.026;2023-06-22T16:57:51;21.50;99.90
52471;DHT22;38382;53.160;7.026;2023-06-22T17:00:20;21.60;99.90
52471;DHT22;38382;53.160;7.026;2023-06-22T17:02:50;21.60;99.90
52471;DHT22;38382;53.160;7.026;2023-06-22T17:05:17;21.50;99.90
52471;DHT22;38382;53.160;7.026;2023-06-22T17:07:53;21.50;99.90
52471;DHT22;38382;53.160;7.026;2023-06-22T17:10:22;21.40;99.90
52471;DHT22;38382;53.160;7.026;2023-06-22T17:12:48;21.30;99.90
52471;DHT22;38382;53.160;7.026;2023-06-22T17:15:14;21.30;99.90
52471;DHT22;38382;53.160;7.026;2023-06-22T17:17:42;21.30;99.90
52471;DHT22;38382;53.160;7.026;2023-06-22T17:20:09;21.20;99.90
52471;DHT22;38382;53.160;7.026;2023-06-22T17:22:35;21.20;99.90
52471;DHT22;38382;53.160;7.026;2023-06-22T17:25:04;21.20;99.90
52471;DHT22;38382;53.160;7.026;2023-06-22T17:27:33;21.10;99.90
52471;DHT22;38382;53.160;7.026;2023-06-22T17:30:10;21.10;99.90
52471;DHT22;38382;53.160;7.026;2023-06-22T17:32:38;21.00;99.90
52471;DHT22;38382;53.160;7.026;2023-06-22T17:35:04;20.90;99.90
52471;DHT22;38382;53.160;7.026;2023-06-22T17:37:49;20.90;99.90
52471;DHT22;38382;53.160;7.026;2023-06-22T17:40:18;20.80;99.90
52471;DHT22;38382;53.160;7.026;2023-06-22T17:42:47;20.70;99.90
52471;DHT22;38382;53.160;7.026;2023-06-22T17:45:22;20.70;99.90
52471;DHT22;38382;53.160;7.026;2023-06-22T17:47:53;20.70;99.90
52471;DHT22;38382;53.160;7.026;2023-06-22T17:50:22;20.70;99.90
52471;DHT22;38382;53.160;7.026;2023-06-22T17:52:52;20.60;99.90
52471;DHT22;38382;53.160;7.026;2023-06-22T17:55:25;20.60;99.90
52471;DHT22;38382;53.160;7.026;2023-06-22T17:57:58;20.50;99.90
52471;DHT22;38382;53.160;7.026;2023-06-22T18:00:25;20.50;99.90
52471;DHT22;38382;53.160;7.026;2023-06-22T18:02:51;20.50;99.90
52471;DHT22;38382;53.160;7.026;2023-06-22T18:05:21;20.40;99.90
52471;DHT22;38382;53.160;7.026;2023-06-22T18:07:53;20.40;99.90
52471;DHT22;38382;53.160;7.026;2023-06-22T18:10:20;20.30;99.90
52471;DHT22;38382;53.160;7.026;2023-06-22T18:12:47;20.30;99.90
52471;DHT22;38382;53.160;7.026;2023-06-22T18:15:16;20.30;99.90
52471;DHT22;38382;53.160;7.026;2023-06-22T18:17:42;20.20;99.90
52471;DHT22;38382;53.160;7.026;2023-06-22T18:20:09;20.20;99.90
52471;DHT22;38382;53.160;7.026;2023-06-22T18:22:38;20.20;99.90
52471;DHT22;38382;53.160;7.026;2023-06-22T18:25:04;20.20;99.90
52471;DHT22;38382;53.160;7.026;2023-06-22T18:27:32;20.20;99.90
52471;DHT22;38382;53.160;7.026;2023-06-22T18:30:01;20.10;99.90
52471;DHT22;38382;53.160;7.026;2023-06-22T18:32:28;20.10;99.90
52471;DHT22;38382;53.160;7.026;2023-06-22T18:34:54;20.10;99.90
52471;DHT22;38382;53.160;7.026;2023-06-22T18:37:20;20.00;99.90
52471;DHT22;38382;53.160;7.026;2023-06-22T18:39:50;20.00;99.90
52471;DHT22;38382;53.160;7.026;2023-06-22T18:42:17;20.00;99.90
52471;DHT22;38382;53.160;7.026;2023-06-22T18:44:43;19.90;99.90
52471;DHT22;38382;53.160;7.026;2023-06-22T18:47:10;19.90;99.90
52471;DHT22;38382;53.160;7.026;2023-06-22T18:54:42;19.80;99.90
52471;DHT22;38382;53.160;7.026;2023-06-22T18:57:26;19.70;99.90
52471;DHT22;38382;53.160;7.026;2023-06-22T19:10:38;19.40;99.90
52471;DHT22;38382;53.160;7.026;2023-06-22T19:18:28;19.30;99.90
52471;DHT22;38382;53.160;7.026;2023-06-22T19:21:12;19.20;99.90
52471;DHT22;38382;53.160;7.026;2023-06-22T19:23:41;19.20;99.90
52471;DHT22;38382;53.160;7.026;2023-06-22T19:26:14;19.10;99.90
52471;DHT22;38382;53.160;7.026;2023-06-22T19:28:52;19.10;99.90
52471;DHT22;38382;53.160;7.026;2023-06-22T19:31:20;19.00;99.90
52471;DHT22;38382;53.160;7.026;2023-06-22T19:33:46;19.00;99.90
52471;DHT22;38382;53.160;7.026;2023-06-22T19:36:12;19.00;99.90
52471;DHT22;38382;53.160;7.026;2023-06-22T19:38:39;18.90;99.90
52471;DHT22;38382;53.160;7.026;2023-06-22T19:41:07;18.90;99.90
52471;DHT22;38382;53.160;7.026;2023-06-22T19:43:34;18.90;99.90
52471;DHT22;38382;53.160;7.026;2023-06-22T19:46:01;18.90;99.90
52471;DHT22;38382;53.160;7.026;2023-06-22T19:48:28;18.90;99.90
52471;DHT22;38382;53.160;7.026;2023-06-22T19:50:55;18.90;99.90
52471;DHT22;38382;53.160;7.026;2023-06-22T19:53:22;18.90;99.90
52471;DHT22;38382;53.160;7.026;2023-06-22T19:55:49;18.80;99.90
52471;DHT22;38382;53.160;7.026;2023-06-22T19:58:17;18.70;99.90
52471;DHT22;38382;53.160;7.026;2023-06-22T20:00:44;18.70;99.90
52471;DHT22;38382;53.160;7.026;2023-06-22T20:03:16;18.60;99.90
52471;DHT22;38382;53.160;7.026;2023-06-22T20:05:44;18.60;99.90
52471;DHT22;38382;53.160;7.026;2023-06-22T20:08:14;18.50;99.90
52471;DHT22;38382;53.160;7.026;2023-06-22T20:10:40;18.50;99.90
52471;DHT22;38382;53.160;7.026;2023-06-22T20:13:14;18.50;99.90
52471;DHT22;38382;53.160;7.026;2023-06-22T20:15:43;18.50;99.90
52471;DHT22;38382;53.160;7.026;2023-06-22T20:18:11;18.50;99.90
52471;DHT22;38382;53.160;7.026;2023-06-22T20:20:41;18.50;99.90
52471;DHT22;38382;53.160;7.026;2023-06-22T20:23:08;18.50;99.90
52471;DHT22;38382;53.160;7.026;2023-06-22T20:25:41;18.50;99.90
52471;DHT22;38382;53.160;7.026;2023-06-22T20:28:14;18.50;99.90
52471;DHT22;38382;53.160;7.026;2023-06-22T20:30:43;18.50;99.90
52471;DHT22;38382;53.160;7.026;2023-06-22T20:33:25;18.40;99.90
52471;DHT22;38382;53.160;7.026;2023-06-22T20:35:51;18.40;99.90
52471;DHT22;38382;53.160;7.026;2023-06-22T20:38:17;18.40;99.90
52471;DHT22;38382;53.160;7.026;2023-06-22T20:40:42;18.40;99.90
52471;DHT22;38382;53.160;7.026;2023-06-22T20:43:09;18.30;99.90
52471;DHT22;38382;53.160;7.026;2023-06-22T20:45:38;18.40;99.90
52471;DHT22;38382;53.160;7.026;2023-06-22T20:48:05;18.30;99.90
52471;DHT22;38382;53.160;7.026;2023-06-22T20:50:30;18.30;99.90
52471;DHT22;38382;53.160;7.026;2023-06-22T20:55:22;18.30;99.90
52471;DHT22;38382;53.160;7.026;2023-06-22T20:57:48;18.30;99.90
52471;DHT22;38382;53.160;7.026;2023-06-22T21:00:14;18.20;99.90
52471;DHT22;38382;53.160;7.026;2023-06-22T21:02:40;18.20;99.90
52471;DHT22;38382;53.160;7.026;2023-06-22T21:05:09;18.20;99.90
52471;DHT22;38382;53.160;7.026;2023-06-22T21:07:35;18.20;99.90
52471;DHT22;38382;53.160;7.026;2023-06-22T21:10:01;18.20;99.90
52471;DHT22;38382;53.160;7.026;2023-06-22T21:12:27;18.20;99.90
52471;DHT22;38382;53.160;7.026;2023-06-22T21:14:54;18.20;99.90
52471;DHT22;38382;53.160;7.026;2023-06-22T21:17:19;18.20;99.90
52471;DHT22;38382;53.160;7.026;2023-06-22T21:19:45;18.20;99.90
52471;DHT22;38382;53.160;7.026;2023-06-22T21:22:11;18.20;99.90
52471;DHT22;38382;53.160;7.026;2023-06-22T21:24:37;18.20;99.90
52471;DHT22;38382;53.160;7.026;2023-06-22T21:27:03;18.20;99.90